Time;durP1;ratioP1;P1;durP2;ratioP2;P2;SDS_P1;SDS_P2;PMS_P1;PMS_P2;Temp;Humidity;BMP_temperature;BMP_pressure;BME280_temperature;BME280_humidity;BME280_pressure;Samples;Min_cycle;Max_cycle;Signal;HPM_P1;HPM_P2
2020/12/11 00:00:54;;;;;;;;;;;21.60;55.30;;;;;;5033328;28;1248;-62
2020/12/11 00:03:19;;;;;;;;;;;21.60;55.30;;;;;;5031875;28;1271;-63
2020/12/11 00:05:45;;;;;;;;;;;21.60;55.40;;;;;;5033095;28;1323;-62
2020/12/11 00:08:11;;;;;;;;;;;21.60;55.40;;;;;;5033198;28;1263;-61
2020/12/11 00:10:36;;;;;;;;;;;21.60;55.40;;;;;;5033200;28;1125;-62
2020/12/11 00:13:02;;;;;;;;;;;21.60;55.40;;;;;;5033069;28;1247;-63
2020/12/11 00:15:27;;;;;;;;;;;21.50;55.40;;;;;;5032649;28;1969;-61
2020/12/11 00:17:53;;;;;;;;;;;21.60;55.50;;;;;;5032740;28;1192;-62
2020/12/11 00:20:18;;;;;;;;;;;21.60;55.50;;;;;;5032727;28;1337;-62
2020/12/11 00:22:44;;;;;;;;;;;21.60;55.50;;;;;;5032903;28;1237;-62
2020/12/11 00:25:09;;;;;;;;;;;21.50;55.50;;;;;;5031420;28;1363;-61
2020/12/11 00:27:35;;;;;;;;;;;21.50;55.60;;;;;;5032276;28;1279;-62
2020/12/11 00:30:00;;;;;;;;;;;21.50;55.60;;;;;;5032423;28;1138;-62
2020/12/11 00:32:27;;;;;;;;;;;21.50;55.60;;;;;;5032360;28;1080;-62
2020/12/11 00:34:52;;;;;;;;;;;21.50;55.60;;;;;;5030847;28;1914;-63
2020/12/11 00:37:18;;;;;;;;;;;21.50;55.70;;;;;;5032306;28;1253;-61
2020/12/11 00:39:43;;;;;;;;;;;21.50;55.70;;;;;;5032012;28;1269;-62
2020/12/11 00:42:09;;;;;;;;;;;21.50;55.70;;;;;;5032324;28;1259;-62
2020/12/11 00:44:34;;;;;;;;;;;21.40;56.20;;;;;;5031826;28;1275;-63
2020/12/11 00:47:03;;;;;;;;;;;21.40;55.70;;;;;;5032024;28;1027;-62
2020/12/11 00:49:28;;;;;;;;;;;21.40;55.70;;;;;;5032234;28;1244;-64
2020/12/11 00:51:54;;;;;;;;;;;21.40;55.70;;;;;;5032101;28;1317;-62
2020/12/11 00:54:20;;;;;;;;;;;21.40;55.80;;;;;;5030364;28;1970;-62
2020/12/11 00:56:45;;;;;;;;;;;21.40;55.80;;;;;;5030916;28;1339;-64
2020/12/11 00:59:11;;;;;;;;;;;21.40;55.80;;;;;;5030671;28;1332;-61
2020/12/11 01:01:36;;;;;;;;;;;21.40;55.80;;;;;;5030578;28;1317;-61
2020/12/11 01:04:03;;;;;;;;;;;21.40;55.90;;;;;;5031611;28;1278;-65
2020/12/11 01:06:28;;;;;;;;;;;21.40;55.90;;;;;;5030581;28;1270;-62
2020/12/11 01:08:54;;;;;;;;;;;21.40;55.90;;;;;;5030459;28;1227;-62
2020/12/11 01:11:19;;;;;;;;;;;21.40;55.90;;;;;;5031857;28;1267;-61
2020/12/11 01:13:45;;;;;;;;;;;21.30;55.90;;;;;;5031299;28;1914;-61
2020/12/11 01:16:10;;;;;;;;;;;21.30;55.90;;;;;;5031598;28;1248;-62
2020/12/11 01:18:36;;;;;;;;;;;21.30;55.90;;;;;;5031532;28;1299;-62
2020/12/11 01:21:01;;;;;;;;;;;21.30;55.90;;;;;;5030533;28;1318;-62
2020/12/11 01:23:26;;;;;;;;;;;21.30;56.00;;;;;;5031448;28;1280;-61
2020/12/11 01:25:52;;;;;;;;;;;21.30;56.00;;;;;;5030078;28;1724;-61
2020/12/11 01:28:18;;;;;;;;;;;21.30;56.00;;;;;;5030574;28;1354;-62
2020/12/11 01:30:44;;;;;;;;;;;21.30;56.00;;;;;;5030410;28;1296;-62
2020/12/11 01:33:09;;;;;;;;;;;21.30;56.00;;;;;;5031356;28;1301;-62
2020/12/11 01:35:35;;;;;;;;;;;21.30;56.00;;;;;;5030907;28;1903;-62
2020/12/11 01:38:00;;;;;;;;;;;21.30;56.10;;;;;;5031213;28;1290;-62
2020/12/11 01:40:25;;;;;;;;;;;21.30;56.10;;;;;;5030302;28;1298;-62
2020/12/11 01:42:51;;;;;;;;;;;21.20;56.00;;;;;;5031427;28;1262;-61
2020/12/11 01:45:16;;;;;;;;;;;21.20;56.10;;;;;;5031132;28;1350;-62
2020/12/11 01:47:42;;;;;;;;;;;21.20;56.10;;;;;;5031186;28;1286;-61
2020/12/11 01:50:08;;;;;;;;;;;21.20;56.10;;;;;;5031432;28;1283;-62
2020/12/11 01:52:34;;;;;;;;;;;21.20;56.70;;;;;;5030029;28;1343;-61
2020/12/11 01:54:59;;;;;;;;;;;21.20;56.10;;;;;;5029713;28;1949;-62
2020/12/11 01:57:40;;;;;;;;;;;21.20;56.10;;;;;;5028555;28;1409;-62
2020/12/11 02:00:08;;;;;;;;;;;21.20;56.20;;;;;;5028263;28;1425;-62
2020/12/11 02:02:36;;;;;;;;;;;21.20;56.20;;;;;;5030955;28;1375;-62
2020/12/11 02:05:04;;;;;;;;;;;21.20;56.20;;;;;;5030414;28;1390;-62
2020/12/11 02:07:29;;;;;;;;;;;21.20;56.20;;;;;;5030811;28;1421;-61
2020/12/11 02:09:55;;;;;;;;;;;21.20;56.20;;;;;;5030919;28;1312;-62
2020/12/11 02:12:22;;;;;;;;;;;21.20;56.30;;;;;;5031966;28;1452;-62
2020/12/11 02:14:48;;;;;;;;;;;21.10;56.20;;;;;;5030411;28;1954;-61
2020/12/11 02:17:13;;;;;;;;;;;21.10;56.20;;;;;;5031833;28;1265;-62
2020/12/11 02:19:39;;;;;;;;;;;21.10;56.30;;;;;;5023549;28;1333;-61
2020/12/11 02:22:05;;;;;;;;;;;21.10;56.30;;;;;;5024354;28;1435;-63
2020/12/11 02:24:30;;;;;;;;;;;21.10;56.20;;;;;;5021662;28;1328;-62
2020/12/11 02:26:56;;;;;;;;;;;21.10;56.20;;;;;;5025297;28;1236;-62
2020/12/11 02:29:22;;;;;;;;;;;21.20;56.20;;;;;;5020919;28;1331;-63
2020/12/11 02:31:47;;;;;;;;;;;21.20;56.20;;;;;;5025642;28;1511;-63
2020/12/11 02:34:12;;;;;;;;;;;21.20;56.10;;;;;;5021972;28;1910;-62
2020/12/11 02:36:38;;;;;;;;;;;21.20;56.10;;;;;;5024755;28;1421;-61
2020/12/11 02:39:03;;;;;;;;;;;21.20;56.10;;;;;;5007260;28;1255;-62
2020/12/11 02:41:29;;;;;;;;;;;21.20;56.00;;;;;;5027033;28;1236;-64
2020/12/11 02:43:54;;;;;;;;;;;21.20;56.00;;;;;;5025562;28;1288;-62
2020/12/11 02:46:20;;;;;;;;;;;21.20;56.00;;;;;;5027892;28;1315;-63
2020/12/11 02:48:45;;;;;;;;;;;21.20;56.00;;;;;;5025357;28;1228;-62
2020/12/11 02:51:11;;;;;;;;;;;21.20;56.00;;;;;;5027344;28;1321;-64
2020/12/11 02:53:36;;;;;;;;;;;21.20;56.00;;;;;;5026305;28;1906;-61
2020/12/11 02:56:02;;;;;;;;;;;21.20;56.00;;;;;;5027234;28;1240;-56
2020/12/11 02:58:27;;;;;;;;;;;21.20;56.00;;;;;;5026765;28;1204;-63
2020/12/11 03:00:53;;;;;;;;;;;21.20;56.00;;;;;;5026717;28;1288;-62
2020/12/11 03:03:18;;;;;;;;;;;21.20;56.00;;;;;;5027582;28;1331;-63
2020/12/11 03:05:44;;;;;;;;;;;21.20;56.00;;;;;;5009689;28;1387;-63
2020/12/11 03:08:09;;;;;;;;;;;21.20;56.00;;;;;;5026585;28;1239;-63
2020/12/11 03:10:35;;;;;;;;;;;21.20;56.10;;;;;;5025444;28;1291;-62
2020/12/11 03:13:00;;;;;;;;;;;21.10;56.00;;;;;;5028697;28;1255;-61
2020/12/11 03:15:26;;;;;;;;;;;21.20;56.10;;;;;;5025970;28;1979;-63
2020/12/11 03:17:51;;;;;;;;;;;21.10;56.10;;;;;;5026385;28;1303;-62
2020/12/11 03:20:22;;;;;;;;;;;21.10;56.10;;;;;;5025264;28;1280;-62
2020/12/11 03:22:57;;;;;;;;;;;21.10;56.10;;;;;;5024823;28;1228;-62
2020/12/11 03:25:23;;;;;;;;;;;21.10;56.10;;;;;;5031871;28;1324;-62
2020/12/11 03:27:48;;;;;;;;;;;21.10;56.20;;;;;;5034892;28;1316;-62
2020/12/11 03:30:14;;;;;;;;;;;21.10;56.20;;;;;;5021885;28;1229;-63
2020/12/11 03:32:39;;;;;;;;;;;21.10;56.20;;;;;;5034831;28;1318;-62
2020/12/11 03:35:05;;;;;;;;;;;21.10;56.20;;;;;;5033301;28;1914;-62
2020/12/11 03:37:30;;;;;;;;;;;21.10;56.20;;;;;;5033591;28;1294;-62
2020/12/11 03:39:56;;;;;;;;;;;21.10;56.20;;;;;;5034491;28;1209;-63
2020/12/11 03:42:21;;;;;;;;;;;21.10;56.20;;;;;;5034414;28;1264;-62
2020/12/11 03:44:47;;;;;;;;;;;21.10;56.30;;;;;;5033549;28;1348;-62
2020/12/11 03:47:12;;;;;;;;;;;21.00;56.20;;;;;;5034317;28;1369;-61
2020/12/11 03:49:38;;;;;;;;;;;21.10;56.30;;;;;;5034532;28;1404;-62
2020/12/11 03:52:03;;;;;;;;;;;21.10;56.30;;;;;;5033344;28;1384;-61
2020/12/11 03:54:29;;;;;;;;;;;21.00;56.30;;;;;;5034007;28;1890;-62
2020/12/11 03:56:54;;;;;;;;;;;21.00;56.30;;;;;;5034204;28;1318;-63
2020/12/11 03:59:20;;;;;;;;;;;21.00;56.30;;;;;;5034346;28;1315;-63
2020/12/11 04:01:45;;;;;;;;;;;21.00;56.40;;;;;;5034436;28;1336;-62
2020/12/11 04:04:11;;;;;;;;;;;21.00;56.40;;;;;;5033984;28;1389;-63
2020/12/11 04:06:36;;;;;;;;;;;21.10;56.40;;;;;;5032773;28;1339;-63
2020/12/11 04:09:02;;;;;;;;;;;21.00;56.40;;;;;;5032923;28;1323;-62
2020/12/11 04:11:27;;;;;;;;;;;21.00;56.30;;;;;;5034093;28;1356;-63
2020/12/11 04:13:52;;;;;;;;;;;21.00;56.40;;;;;;5033763;28;1902;-63
2020/12/11 04:16:18;;;;;;;;;;;21.00;56.30;;;;;;5033957;28;1481;-62
2020/12/11 04:18:43;;;;;;;;;;;21.10;56.20;;;;;;5033016;28;1327;-62
2020/12/11 04:21:13;;;;;;;;;;;21.20;56.20;;;;;;5017241;28;1795;-62
2020/12/11 04:23:38;;;;;;;;;;;21.30;56.10;;;;;;5033239;28;1716;-61
2020/12/11 04:26:04;;;;;;;;;;;21.30;55.90;;;;;;5033544;28;1244;-62
2020/12/11 04:28:29;;;;;;;;;;;21.40;55.60;;;;;;5033165;28;1377;-62
2020/12/11 04:30:55;;;;;;;;;;;21.60;55.40;;;;;;5033801;28;1304;-62
2020/12/11 04:33:20;;;;;;;;;;;21.70;55.30;;;;;;5032850;28;1366;-62
2020/12/11 04:35:46;;;;;;;;;;;21.70;55.00;;;;;;5033344;28;1959;-60
2020/12/11 04:38:11;;;;;;;;;;;21.80;54.80;;;;;;5033324;28;1282;-63
2020/12/11 04:40:37;;;;;;;;;;;21.90;54.60;;;;;;5031679;28;1359;-62
2020/12/11 04:43:04;;;;;;;;;;;22.00;54.40;;;;;;5033389;28;1354;-62
2020/12/11 04:45:30;;;;;;;;;;;22.10;54.30;;;;;;5033317;28;1355;-63
2020/12/11 04:47:55;;;;;;;;;;;22.20;54.10;;;;;;5033328;28;1389;-60
2020/12/11 04:50:21;;;;;;;;;;;22.20;53.90;;;;;;5032174;28;1358;-62
2020/12/11 04:52:47;;;;;;;;;;;22.30;53.80;;;;;;5031875;28;1333;-62
2020/12/11 04:55:16;;;;;;;;;;;22.40;53.70;;;;;;5032349;28;1955;-60
2020/12/11 04:57:43;;;;;;;;;;;22.40;53.60;;;;;;5031888;28;1311;-62
2020/12/11 05:00:09;;;;;;;;;;;22.40;53.40;;;;;;5033161;28;1303;-62
2020/12/11 05:02:34;;;;;;;;;;;22.50;53.30;;;;;;5033345;28;1395;-62
2020/12/11 05:05:00;;;;;;;;;;;22.50;53.30;;;;;;5031603;28;1347;-62
2020/12/11 05:07:27;;;;;;;;;;;22.50;53.20;;;;;;5032721;28;1331;-62
2020/12/11 05:09:55;;;;;;;;;;;22.60;53.20;;;;;;5032959;28;1339;-60
2020/12/11 05:12:22;;;;;;;;;;;22.60;53.10;;;;;;5032865;28;1318;-61
2020/12/11 05:14:47;;;;;;;;;;;22.60;53.00;;;;;;5011598;28;1890;-62
2020/12/11 05:17:13;;;;;;;;;;;22.70;53.00;;;;;;5030696;28;1331;-62
2020/12/11 05:19:51;;;;;;;;;;;22.70;53.00;;;;;;5026308;28;2055;-61
2020/12/11 05:22:17;;;;;;;;;;;22.70;52.90;;;;;;5016897;28;1307;-62
2020/12/11 05:24:43;;;;;;;;;;;22.70;52.90;;;;;;5032637;28;1371;-62
2020/12/11 05:27:27;;;;;;;;;;;22.80;52.90;;;;;;5031088;28;1096;-62
2020/12/11 05:29:56;;;;;;;;;;;22.80;52.80;;;;;;5032770;28;1305;-62
2020/12/11 05:32:40;;;;;;;;;;;22.80;53.40;;;;;;5031573;28;1401;-61
2020/12/11 05:35:07;;;;;;;;;;;22.80;52.80;;;;;;5032347;28;1954;-62
2020/12/11 05:37:43;;;;;;;;;;;22.80;52.70;;;;;;5032526;28;1277;-63
2020/12/11 05:40:35;;;;;;;;;;;22.80;52.70;;;;;;5032094;28;1310;-62
2020/12/11 05:43:10;;;;;;;;;;;22.80;52.70;;;;;;5031136;28;1284;-61
2020/12/11 05:45:36;;;;;;;;;;;22.80;52.70;;;;;;5032354;28;1203;-61
2020/12/11 05:48:02;;;;;;;;;;;22.80;52.80;;;;;;5031371;28;1378;-61
2020/12/11 05:50:28;;;;;;;;;;;22.80;52.80;;;;;;5031104;28;1276;-62
2020/12/11 05:52:53;;;;;;;;;;;22.80;52.80;;;;;;5027137;28;2105;-64
2020/12/11 05:55:19;;;;;;;;;;;22.80;52.90;;;;;;5023389;28;1894;-62
2020/12/11 05:57:44;;;;;;;;;;;22.80;52.90;;;;;;5031152;28;1395;-62
2020/12/11 06:00:10;;;;;;;;;;;22.80;52.90;;;;;;5028432;28;1410;-61
2020/12/11 06:02:36;;;;;;;;;;;22.70;52.90;;;;;;5028712;28;1496;-62
2020/12/11 06:05:01;;;;;;;;;;;22.70;52.90;;;;;;5031245;28;1404;-62
2020/12/11 06:07:27;;;;;;;;;;;22.70;53.00;;;;;;5031091;28;1320;-62
2020/12/11 06:09:52;;;;;;;;;;;22.70;53.00;;;;;;5011478;28;1284;-62
2020/12/11 06:12:17;;;;;;;;;;;22.70;53.10;;;;;;5028462;28;1296;-63
2020/12/11 06:14:46;;;;;;;;;;;22.70;53.20;;;;;;5030954;28;1956;-63
2020/12/11 06:17:12;;;;;;;;;;;22.60;53.10;;;;;;5032251;28;1335;-63
2020/12/11 06:19:38;;;;;;;;;;;22.60;53.20;;;;;;5031354;28;1116;-63
2020/12/11 06:22:04;;;;;;;;;;;22.60;53.20;;;;;;5032436;28;1366;-63
2020/12/11 06:24:30;;;;;;;;;;;22.60;53.30;;;;;;5014705;28;1823;-62
2020/12/11 06:26:56;;;;;;;;;;;22.60;53.30;;;;;;5032174;28;1253;-63
2020/12/11 06:29:25;;;;;;;;;;;22.50;53.30;;;;;;5036059;28;1158;-62
2020/12/11 06:31:51;;;;;;;;;;;22.50;53.40;;;;;;5036048;28;1126;-62
2020/12/11 06:34:19;;;;;;;;;;;22.50;53.40;;;;;;5034207;28;1907;-62
2020/12/11 06:36:44;;;;;;;;;;;22.50;53.50;;;;;;5034648;28;1447;-61
2020/12/11 06:39:10;;;;;;;;;;;22.50;53.50;;;;;;5035728;28;1301;-62
2020/12/11 06:41:35;;;;;;;;;;;22.40;53.60;;;;;;5035910;28;1312;-62
2020/12/11 06:44:09;;;;;;;;;;;22.40;53.60;;;;;;5035636;28;1288;-62
2020/12/11 06:46:35;;;;;;;;;;;22.40;53.70;;;;;;5035509;28;1336;-61
2020/12/11 06:49:03;;;;;;;;;;;22.40;53.70;;;;;;5035849;28;1371;-63
2020/12/11 06:51:29;;;;;;;;;;;22.40;53.70;;;;;;5035795;28;1402;-62
2020/12/11 06:53:54;;;;;;;;;;;22.30;53.70;;;;;;5026697;28;1906;-62
2020/12/11 06:56:40;;;;;;;;;;;22.30;53.80;;;;;;5033416;28;1284;-63
2020/12/11 06:59:24;;;;;;;;;;;22.30;53.80;;;;;;5035436;28;1491;-62
2020/12/11 07:01:50;;;;;;;;;;;22.30;53.90;;;;;;5034671;28;1305;-63
2020/12/11 07:04:15;;;;;;;;;;;22.30;54.00;;;;;;5033585;28;1359;-62
2020/12/11 07:06:47;;;;;;;;;;;22.20;54.00;;;;;;5035402;28;1419;-64
2020/12/11 07:09:13;;;;;;;;;;;22.30;54.00;;;;;;5035093;28;1304;-65
2020/12/11 07:11:38;;;;;;;;;;;22.20;54.00;;;;;;5035302;28;1424;-62
2020/12/11 07:14:04;;;;;;;;;;;22.20;53.80;;;;;;5013661;28;1895;-61
2020/12/11 07:16:29;;;;;;;;;;;22.20;54.00;;;;;;5025133;28;1370;-63
2020/12/11 07:18:55;;;;;;;;;;;22.20;54.10;;;;;;5034694;28;1286;-63
2020/12/11 07:21:26;;;;;;;;;;;22.20;54.10;;;;;;5035134;28;1304;-60
2020/12/11 07:23:51;;;;;;;;;;;22.20;54.20;;;;;;5033524;28;1706;-61
2020/12/11 07:26:17;;;;;;;;;;;22.10;54.20;;;;;;5034835;28;1307;-61
2020/12/11 07:28:42;;;;;;;;;;;22.10;54.20;;;;;;5033341;28;1332;-61
2020/12/11 07:31:10;;;;;;;;;;;22.10;54.30;;;;;;5034627;28;1331;-62
2020/12/11 07:33:35;;;;;;;;;;;22.10;54.30;;;;;;5033975;28;2344;-62
2020/12/11 07:36:01;;;;;;;;;;;22.10;54.30;;;;;;5034456;28;1373;-62
2020/12/11 07:38:27;;;;;;;;;;;22.10;54.40;;;;;;5033457;28;1344;-62
2020/12/11 07:40:56;;;;;;;;;;;22.00;54.40;;;;;;5034550;28;1381;-61
2020/12/11 07:43:21;;;;;;;;;;;22.00;54.40;;;;;;5013658;28;1342;-62
2020/12/11 07:45:47;;;;;;;;;;;22.00;54.40;;;;;;5027309;28;1303;-63
2020/12/11 07:48:13;;;;;;;;;;;22.00;54.50;;;;;;5034121;28;1400;-62
2020/12/11 07:50:38;;;;;;;;;;;22.00;54.50;;;;;;5034559;28;1286;-62
2020/12/11 07:53:10;;;;;;;;;;;21.90;54.50;;;;;;5034370;28;1324;-63
2020/12/11 07:55:35;;;;;;;;;;;21.90;54.50;;;;;;5033411;28;1906;-63
2020/12/11 07:58:02;;;;;;;;;;;21.90;54.60;;;;;;5031255;28;1374;-62
2020/12/11 08:00:28;;;;;;;;;;;21.90;54.60;;;;;;5030980;28;1291;-63
2020/12/11 08:02:53;;;;;;;;;;;21.90;54.70;;;;;;5031438;28;1363;-64
2020/12/11 08:05:20;;;;;;;;;;;21.90;54.70;;;;;;5032174;28;1379;-64
2020/12/11 08:07:49;;;;;;;;;;;21.90;54.70;;;;;;5031338;28;1545;-64
2020/12/11 08:10:15;;;;;;;;;;;21.90;54.80;;;;;;5031275;28;1316;-64
2020/12/11 08:12:41;;;;;;;;;;;21.90;54.80;;;;;;5032672;28;1418;-63
2020/12/11 08:15:06;;;;;;;;;;;21.80;54.80;;;;;;5033592;28;1906;-63
2020/12/11 08:17:32;;;;;;;;;;;21.80;54.80;;;;;;5032649;28;1383;-63
2020/12/11 08:20:02;;;;;;;;;;;21.80;54.80;;;;;;5032827;28;1288;-64
2020/12/11 08:22:32;;;;;;;;;;;21.80;54.80;;;;;;5032743;28;1307;-63
2020/12/11 08:24:57;;;;;;;;;;;21.90;54.80;;;;;;5032423;28;1377;-64
2020/12/11 08:27:26;;;;;;;;;;;21.90;54.70;;;;;;5032439;28;1347;-64
2020/12/11 08:30:03;;;;;;;;;;;21.90;54.70;;;;;;5033740;28;1194;-63
2020/12/11 08:32:29;;;;;;;;;;;21.90;54.60;;;;;;5033633;28;1275;-63
2020/12/11 08:34:54;;;;;;;;;;;22.00;54.60;;;;;;5033325;28;1974;-63
2020/12/11 08:37:20;;;;;;;;;;;22.10;54.50;;;;;;5033722;28;1313;-63
2020/12/11 08:39:45;;;;;;;;;;;22.10;54.40;;;;;;5033608;28;1308;-63
2020/12/11 08:45:10;;;;;;;;;;;22.20;54.20;;;;;;5032902;28;1272;-63
2020/12/11 08:50:11;;;;;;;;;;;22.30;54.00;;;;;;5032392;28;1105;-64
2020/12/11 08:52:37;;;;;;;;;;;22.30;53.90;;;;;;5032507;28;1346;-64
2020/12/11 08:55:02;;;;;;;;;;;22.30;53.80;;;;;;5028174;28;2026;-62
2020/12/11 08:57:31;;;;;;;;;;;22.30;53.80;;;;;;5032121;28;1313;-63
2020/12/11 08:59:57;;;;;;;;;;;22.30;54.40;;;;;;5033387;28;1283;-64
2020/12/11 09:02:22;;;;;;;;;;;22.30;53.70;;;;;;5033255;28;1123;-63
2020/12/11 09:04:48;;;;;;;;;;;22.30;53.70;;;;;;5031867;28;1400;-63
2020/12/11 09:07:13;;;;;;;;;;;22.30;53.70;;;;;;5032714;28;1341;-64
2020/12/11 09:09:39;;;;;;;;;;;22.30;53.80;;;;;;5033294;28;1349;-64
2020/12/11 09:12:04;;;;;;;;;;;22.30;53.70;;;;;;5033118;28;1382;-63
2020/12/11 09:14:30;;;;;;;;;;;22.30;53.70;;;;;;5031598;28;1907;-63
2020/12/11 09:16:55;;;;;;;;;;;22.30;53.80;;;;;;5032787;28;1394;-64
2020/12/11 09:19:21;;;;;;;;;;;22.30;53.80;;;;;;5033066;28;1258;-63
2020/12/11 09:21:47;;;;;;;;;;;22.30;53.80;;;;;;5032820;28;1330;-63
2020/12/11 09:24:12;;;;;;;;;;;22.20;53.80;;;;;;5031497;28;1409;-63
2020/12/11 09:26:38;;;;;;;;;;;22.30;53.90;;;;;;5032810;28;1397;-63
2020/12/11 09:29:15;;;;;;;;;;;22.30;54.50;;;;;;5032967;28;1124;-63
2020/12/11 09:31:45;;;;;;;;;;;22.20;53.90;;;;;;5032882;28;1292;-63
2020/12/11 09:34:10;;;;;;;;;;;22.20;53.90;;;;;;5030950;28;1993;-63
2020/12/11 09:36:35;;;;;;;;;;;22.20;54.00;;;;;;5032724;28;1420;-64
2020/12/11 09:39:01;;;;;;;;;;;22.20;54.00;;;;;;5011810;28;1313;-63
2020/12/11 09:41:33;;;;;;;;;;;22.20;54.00;;;;;;5030266;28;1402;-63
2020/12/11 09:49:45;;;;;;;;;;;22.10;54.10;;;;;;5045130;28;1308;-63
2020/12/11 09:52:30;;;;;;;;;;;22.10;54.10;;;;;;5048465;28;1184;-63
2020/12/11 09:54:56;;;;;;;;;;;22.10;54.10;;;;;;5037787;28;1886;-63
2020/12/11 09:57:21;;;;;;;;;;;22.10;54.20;;;;;;5033407;28;1320;-63
2020/12/11 09:59:52;;;;;;;;;;;22.10;54.20;;;;;;5030438;28;1419;-63
2020/12/11 10:04:52;;;;;;;;;;;22.10;54.30;;;;;;5034917;28;1496;-63
2020/12/11 10:07:17;;;;;;;;;;;22.10;54.30;;;;;;5034927;28;1307;-65
2020/12/11 10:09:43;;;;;;;;;;;22.10;54.30;;;;;;5035110;28;1375;-65
2020/12/11 10:12:09;;;;;;;;;;;22.10;54.20;;;;;;5036502;28;1342;-65
2020/12/11 10:14:47;;;;;;;;;;;22.20;54.20;;;;;;5035279;28;1894;-65
2020/12/11 10:17:14;;;;;;;;;;;22.20;54.10;;;;;;5035823;28;1327;-66
2020/12/11 10:19:39;;;;;;;;;;;22.20;54.00;;;;;;5036266;28;1344;-65
2020/12/11 10:22:05;;;;;;;;;;;22.20;54.00;;;;;;5036409;28;1250;-66
2020/12/11 10:24:30;;;;;;;;;;;22.20;53.90;;;;;;5036088;28;1388;-65
2020/12/11 10:26:56;;;;;;;;;;;22.20;53.90;;;;;;5036165;28;1334;-65
2020/12/11 10:29:22;;;;;;;;;;;22.20;53.90;;;;;;5034901;28;1321;-65
2020/12/11 10:31:48;;;;;;;;;;;22.20;53.90;;;;;;5031137;28;1888;-64
2020/12/11 10:34:14;;;;;;;;;;;22.20;53.80;;;;;;5034614;28;1910;-66
2020/12/11 10:36:40;;;;;;;;;;;22.20;53.80;;;;;;5033506;28;1307;-65
2020/12/11 10:39:06;;;;;;;;;;;22.20;53.80;;;;;;5033822;28;1119;-65
2020/12/11 10:41:31;;;;;;;;;;;22.20;53.90;;;;;;5034944;28;1324;-65
2020/12/11 10:43:57;;;;;;;;;;;22.20;53.90;;;;;;5030170;28;1313;-64
2020/12/11 10:46:22;;;;;;;;;;;22.20;53.90;;;;;;5032639;28;1418;-65
2020/12/11 10:48:48;;;;;;;;;;;22.20;53.90;;;;;;5033933;28;1323;-65
2020/12/11 10:51:14;;;;;;;;;;;22.20;53.80;;;;;;5033093;28;1226;-65
2020/12/11 10:53:40;;;;;;;;;;;22.20;53.80;;;;;;5033331;28;1303;-65
2020/12/11 10:56:06;;;;;;;;;;;22.30;53.90;;;;;;5034537;28;1216;-65
2020/12/11 10:58:32;;;;;;;;;;;22.20;53.80;;;;;;5034585;28;1090;-65
2020/12/11 11:00:57;;;;;;;;;;;22.30;53.80;;;;;;5027790;28;1923;-64
2020/12/11 11:03:22;;;;;;;;;;;22.30;53.80;;;;;;5026309;28;1391;-65
2020/12/11 11:05:48;;;;;;;;;;;22.30;53.80;;;;;;5034231;28;1362;-62
2020/12/11 11:08:15;;;;;;;;;;;22.30;53.70;;;;;;5033506;28;1092;-64
2020/12/11 11:10:44;;;;;;;;;;;22.30;53.70;;;;;;5034384;28;1248;-65
2020/12/11 11:15:50;;;;;;;;;;;22.30;53.70;;;;;;5034532;28;1967;-65
2020/12/11 11:28:35;;;;;;;;;;;22.30;53.80;;;;;;5034494;28;1342;-65
2020/12/11 11:31:00;;;;;;;;;;;22.30;53.80;;;;;;5033717;28;1254;-65
2020/12/11 11:33:25;;;;;;;;;;;22.30;53.80;;;;;;5033699;28;1240;-65
2020/12/11 11:35:51;;;;;;;;;;;22.30;53.90;;;;;;5033643;28;1977;-65
2020/12/11 11:38:18;;;;;;;;;;;22.20;53.80;;;;;;5045517;23;1956;-63
2020/12/11 11:40:44;;;;;;;;;;;22.20;53.90;;;;;;5034687;28;2821;-64
2020/12/11 11:43:10;;;;;;;;;;;22.20;53.90;;;;;;5052394;28;1656;-64
2020/12/11 11:45:37;;;;;;;;;;;22.20;54.00;;;;;;5053385;28;1662;-63
2020/12/11 11:48:05;;;;;;;;;;;22.20;54.00;;;;;;5036034;28;1437;-64
2020/12/11 11:50:40;;;;;;;;;;;22.20;54.00;;;;;;5072555;28;1702;-63
2020/12/11 11:53:22;;;;;;;;;;;22.20;54.00;;;;;;5073284;28;1540;-62
2020/12/11 11:55:47;;;;;;;;;;;22.30;54.00;;;;;;5071848;28;1973;-61
2020/12/11 11:58:13;;;;;;;;;;;22.30;53.90;;;;;;5071311;28;1346;-63
2020/12/11 12:00:38;;;;;;;;;;;22.30;53.80;;;;;;5072478;28;1568;-64
2020/12/11 12:03:04;;;;;;;;;;;22.30;53.70;;;;;;5072937;28;966;-62
2020/12/11 12:05:29;;;;;;;;;;;22.40;53.70;;;;;;5059097;28;1991;-62
2020/12/11 12:07:55;;;;;;;;;;;22.40;53.60;;;;;;5070733;28;801;-61
2020/12/11 12:10:20;;;;;;;;;;;22.40;53.50;;;;;;5069111;28;1982;-61
2020/12/11 12:12:46;;;;;;;;;;;22.50;53.50;;;;;;5065836;28;1859;-62
2020/12/11 12:15:14;;;;;;;;;;;22.50;53.40;;;;;;5072270;28;1897;-63
2020/12/11 12:17:51;;;;;;;;;;;22.50;53.40;;;;;;5072383;28;1678;-63
2020/12/11 12:20:23;;;;;;;;;;;22.50;53.40;;;;;;5062439;28;2006;-65
2020/12/11 12:30:46;;;;;;;;;;;22.50;53.40;;;;;;5057403;28;2260;-63
2020/12/11 12:43:51;;;;;;;;;;;22.40;53.50;;;;;;5063587;28;1342;-61
2020/12/11 12:46:16;;;;;;;;;;;22.40;53.50;;;;;;5068368;28;1356;-63
2020/12/11 12:48:42;;;;;;;;;;;22.40;53.60;;;;;;5072512;28;1372;-62
2020/12/11 12:51:08;;;;;;;;;;;22.40;53.60;;;;;;5071029;28;1365;-62
2020/12/11 12:53:34;;;;;;;;;;;22.40;53.60;;;;;;5071174;28;1360;-64
2020/12/11 12:58:44;;;;;;;;;;;22.30;53.70;;;;;;5072392;28;1752;-62
2020/12/11 13:01:18;;;;;;;;;;;22.30;53.70;;;;;;5072315;28;1271;-62
2020/12/11 13:06:33;;;;;;;;;;;22.30;53.80;;;;;;5051081;28;1374;-61
2020/12/11 13:08:58;;;;;;;;;;;22.30;53.90;;;;;;5069697;28;1628;-62
2020/12/11 13:11:24;;;;;;;;;;;22.30;53.90;;;;;;5072240;28;1403;-63
2020/12/11 13:13:49;;;;;;;;;;;22.20;53.90;;;;;;5050760;28;1978;-61
2020/12/11 13:16:14;;;;;;;;;;;22.20;53.90;;;;;;5062717;28;1698;-61
2020/12/11 13:18:40;;;;;;;;;;;22.20;54.00;;;;;;5072036;28;1635;-61
2020/12/11 13:21:09;;;;;;;;;;;22.20;54.00;;;;;;5072214;28;1252;-62
2020/12/11 13:29:14;;;;;;;;;;;22.10;54.10;;;;;;5066993;28;1354;-62
2020/12/11 13:31:40;;;;;;;;;;;22.10;54.10;;;;;;5071586;28;1361;-62
2020/12/11 13:34:06;;;;;;;;;;;22.10;54.10;;;;;;5070402;28;1965;-62
2020/12/11 13:36:31;;;;;;;;;;;22.10;54.20;;;;;;5071866;28;1356;-63
2020/12/11 13:38:56;;;;;;;;;;;22.10;54.30;;;;;;5071772;28;1330;-62
2020/12/11 13:41:22;;;;;;;;;;;22.10;54.30;;;;;;5071952;28;1688;-62
2020/12/11 13:43:47;;;;;;;;;;;22.00;54.30;;;;;;5071832;28;1387;-62
2020/12/11 13:46:13;;;;;;;;;;;22.00;54.30;;;;;;5071424;28;1656;-62
2020/12/11 13:48:38;;;;;;;;;;;22.00;54.30;;;;;;5072032;28;1406;-64
2020/12/11 13:51:04;;;;;;;;;;;22.00;54.40;;;;;;5071729;28;1256;-62
2020/12/11 13:53:29;;;;;;;;;;;22.00;54.40;;;;;;5064488;28;1422;-65
2020/12/11 13:55:55;;;;;;;;;;;21.90;54.40;;;;;;5067774;28;1953;-64
2020/12/11 13:58:20;;;;;;;;;;;21.90;54.50;;;;;;5071008;28;1394;-62
2020/12/11 14:00:46;;;;;;;;;;;21.90;54.50;;;;;;5069719;28;1533;-63
2020/12/11 14:03:11;;;;;;;;;;;21.90;54.50;;;;;;5071567;28;1376;-61
2020/12/11 14:05:37;;;;;;;;;;;21.90;54.50;;;;;;5071557;28;1631;-61
2020/12/11 14:08:02;;;;;;;;;;;21.90;54.50;;;;;;5070315;28;1534;-62
2020/12/11 14:10:28;;;;;;;;;;;21.90;54.60;;;;;;5071567;28;1382;-62
2020/12/11 14:12:53;;;;;;;;;;;21.80;54.60;;;;;;5071473;28;1403;-62
2020/12/11 14:15:19;;;;;;;;;;;21.80;54.60;;;;;;5071234;28;1894;-62
2020/12/11 14:17:58;;;;;;;;;;;21.80;54.60;;;;;;5071308;28;1675;-62
2020/12/11 14:22:54;;;;;;;;;;;21.90;54.70;;;;;;5070521;28;1626;-62
2020/12/11 14:25:19;;;;;;;;;;;21.80;54.70;;;;;;5071274;28;1208;-62
2020/12/11 14:27:45;;;;;;;;;;;21.80;54.70;;;;;;5069941;28;1275;-61
2020/12/11 14:30:10;;;;;;;;;;;21.80;54.70;;;;;;5071036;28;1393;-62
2020/12/11 14:32:36;;;;;;;;;;;21.80;54.80;;;;;;5071273;28;1299;-62
2020/12/11 14:35:01;;;;;;;;;;;21.70;54.80;;;;;;5070958;28;1956;-61
2020/12/11 14:37:27;;;;;;;;;;;21.70;54.80;;;;;;5070124;28;1777;-58
2020/12/11 14:39:52;;;;;;;;;;;21.70;54.80;;;;;;5070870;28;1537;-61
2020/12/11 14:42:18;;;;;;;;;;;21.70;54.90;;;;;;5070492;28;1430;-61
2020/12/11 14:44:43;;;;;;;;;;;21.70;54.90;;;;;;5072964;28;1258;-59
2020/12/11 14:47:09;;;;;;;;;;;21.70;54.90;;;;;;5073669;28;1244;-60
2020/12/11 14:49:34;;;;;;;;;;;21.70;54.90;;;;;;5072895;28;1872;-61
2020/12/11 14:51:59;;;;;;;;;;;21.70;55.00;;;;;;5074514;28;1665;-61
2020/12/11 14:54:25;;;;;;;;;;;21.70;55.00;;;;;;5068742;28;1973;-61
2020/12/11 14:56:50;;;;;;;;;;;21.70;55.00;;;;;;5070029;28;1684;-60
2020/12/11 14:59:17;;;;;;;;;;;21.70;55.00;;;;;;5065709;28;1553;-61
2020/12/11 15:01:45;;;;;;;;;;;21.70;55.00;;;;;;5064105;28;2143;-61
2020/12/11 15:04:10;;;;;;;;;;;21.70;55.00;;;;;;5066400;28;1547;-61
2020/12/11 15:06:36;;;;;;;;;;;21.60;55.00;;;;;;5071260;28;1295;-62
2020/12/11 15:09:03;;;;;;;;;;;21.60;55.00;;;;;;5073885;28;1362;-61
2020/12/11 15:11:28;;;;;;;;;;;21.60;55.00;;;;;;5072829;28;1401;-62
2020/12/11 15:13:54;;;;;;;;;;;21.60;54.90;;;;;;5072549;28;1890;-59
2020/12/11 15:16:21;;;;;;;;;;;21.60;55.00;;;;;;5074116;28;1629;-62
2020/12/11 15:18:47;;;;;;;;;;;21.60;55.00;;;;;;5074214;28;1464;-61
2020/12/11 15:21:12;;;;;;;;;;;21.60;55.00;;;;;;5074293;28;1356;-61
2020/12/11 15:23:38;;;;;;;;;;;21.60;55.00;;;;;;5073929;28;1606;-60
2020/12/11 15:26:03;;;;;;;;;;;21.50;54.90;;;;;;5072781;28;1802;-60